sensor_id;sensor_type;location;lat;lon;timestamp;P1;durP1;ratioP1;P2;durP2;ratioP2
37937;SDS011;23763;48.130;11.602;2023-08-06T00:00:03;8.95;;;8.15;;
37937;SDS011;23763;48.130;11.602;2023-08-06T00:02:29;8.45;;;7.93;;
37937;SDS011;23763;48.130;11.602;2023-08-06T00:04:55;8.98;;;8.38;;
37937;SDS011;23763;48.130;11.602;2023-08-06T00:07:21;8.23;;;7.70;;
37937;SDS011;23763;48.130;11.602;2023-08-06T00:09:46;9.02;;;8.23;;
37937;SDS011;23763;48.130;11.602;2023-08-06T00:12:12;9.00;;;8.30;;
37937;SDS011;23763;48.130;11.602;2023-08-06T00:14:37;8.43;;;7.82;;
37937;SDS011;23763;48.130;11.602;2023-08-06T00:17:04;7.82;;;7.32;;
37937;SDS011;23763;48.130;11.602;2023-08-06T00:19:30;8.80;;;8.10;;
37937;SDS011;23763;48.130;11.602;2023-08-06T00:21:56;7.88;;;7.47;;
37937;SDS011;23763;48.130;11.602;2023-08-06T00:24:22;8.05;;;7.55;;
37937;SDS011;23763;48.130;11.602;2023-08-06T00:26:48;7.85;;;7.25;;
37937;SDS011;23763;48.130;11.602;2023-08-06T00:29:13;7.95;;;7.35;;
37937;SDS011;23763;48.130;11.602;2023-08-06T00:31:39;7.72;;;7.15;;
37937;SDS011;23763;48.130;11.602;2023-08-06T00:34:04;7.68;;;7.25;;
37937;SDS011;23763;48.130;11.602;2023-08-06T00:36:30;8.00;;;7.50;;
37937;SDS011;23763;48.130;11.602;2023-08-06T00:38:56;7.10;;;6.70;;
37937;SDS011;23763;48.130;11.602;2023-08-06T00:41:21;7.05;;;6.65;;
37937;SDS011;23763;48.130;11.602;2023-08-06T00:43:47;7.40;;;6.90;;
37937;SDS011;23763;48.130;11.602;2023-08-06T00:46:12;7.63;;;7.22;;
37937;SDS011;23763;48.130;11.602;2023-08-06T00:48:39;8.00;;;7.40;;
37937;SDS011;23763;48.130;11.602;2023-08-06T00:51:05;33.58;;;27.35;;
37937;SDS011;23763;48.130;11.602;2023-08-06T00:53:31;13.88;;;12.50;;
37937;SDS011;23763;48.130;11.602;2023-08-06T00:55:57;7.38;;;6.90;;
37937;SDS011;23763;48.130;11.602;2023-08-06T00:58:23;7.60;;;7.00;;
37937;SDS011;23763;48.130;11.602;2023-08-06T01:00:49;7.40;;;7.00;;
37937;SDS011;23763;48.130;11.602;2023-08-06T01:03:15;7.80;;;7.20;;
37937;SDS011;23763;48.130;11.602;2023-08-06T01:05:41;7.85;;;7.35;;
37937;SDS011;23763;48.130;11.602;2023-08-06T01:08:21;7.88;;;7.43;;
37937;SDS011;23763;48.130;11.602;2023-08-06T01:14:12;7.80;;;7.30;;
37937;SDS011;23763;48.130;11.602;2023-08-06T01:16:43;7.75;;;7.25;;
37937;SDS011;23763;48.130;11.602;2023-08-06T01:19:18;7.63;;;7.22;;
37937;SDS011;23763;48.130;11.602;2023-08-06T01:21:45;7.38;;;6.97;;
37937;SDS011;23763;48.130;11.602;2023-08-06T01:24:10;7.32;;;6.80;;
37937;SDS011;23763;48.130;11.602;2023-08-06T01:26:39;7.45;;;6.95;;
37937;SDS011;23763;48.130;11.602;2023-08-06T01:31:48;7.97;;;7.47;;
37937;SDS011;23763;48.130;11.602;2023-08-06T01:34:18;8.38;;;7.70;;
37937;SDS011;23763;48.130;11.602;2023-08-06T01:36:47;7.65;;;7.15;;
37937;SDS011;23763;48.130;11.602;2023-08-06T01:39:13;8.23;;;7.72;;
37937;SDS011;23763;48.130;11.602;2023-08-06T01:41:39;8.68;;;8.18;;
37937;SDS011;23763;48.130;11.602;2023-08-06T01:44:04;9.07;;;8.52;;
37937;SDS011;23763;48.130;11.602;2023-08-06T01:46:30;8.75;;;8.30;;
37937;SDS011;23763;48.130;11.602;2023-08-06T01:48:56;8.80;;;8.20;;
37937;SDS011;23763;48.130;11.602;2023-08-06T01:51:21;8.50;;;8.00;;
37937;SDS011;23763;48.130;11.602;2023-08-06T01:53:47;8.88;;;8.30;;
37937;SDS011;23763;48.130;11.602;2023-08-06T01:56:12;9.23;;;8.48;;
37937;SDS011;23763;48.130;11.602;2023-08-06T01:58:38;8.85;;;8.18;;
37937;SDS011;23763;48.130;11.602;2023-08-06T02:01:04;8.65;;;8.10;;
37937;SDS011;23763;48.130;11.602;2023-08-06T02:03:29;8.55;;;7.93;;
37937;SDS011;23763;48.130;11.602;2023-08-06T02:05:55;8.75;;;8.15;;
37937;SDS011;23763;48.130;11.602;2023-08-06T02:08:20;8.57;;;7.97;;
37937;SDS011;23763;48.130;11.602;2023-08-06T02:10:46;9.00;;;8.20;;
37937;SDS011;23763;48.130;11.602;2023-08-06T02:13:12;8.10;;;7.70;;
37937;SDS011;23763;48.130;11.602;2023-08-06T02:15:46;8.10;;;7.40;;
37937;SDS011;23763;48.130;11.602;2023-08-06T02:18:15;8.25;;;7.65;;
37937;SDS011;23763;48.130;11.602;2023-08-06T02:20:41;8.20;;;7.60;;
37937;SDS011;23763;48.130;11.602;2023-08-06T02:23:07;7.35;;;6.93;;
37937;SDS011;23763;48.130;11.602;2023-08-06T02:25:33;7.85;;;7.25;;
37937;SDS011;23763;48.130;11.602;2023-08-06T02:27:59;7.03;;;6.72;;
37937;SDS011;23763;48.130;11.602;2023-08-06T02:30:25;7.10;;;6.70;;
37937;SDS011;23763;48.130;11.602;2023-08-06T02:32:50;7.78;;;7.28;;
37937;SDS011;23763;48.130;11.602;2023-08-06T02:35:16;7.18;;;6.68;;
37937;SDS011;23763;48.130;11.602;2023-08-06T02:37:42;7.43;;;6.78;;
37937;SDS011;23763;48.130;11.602;2023-08-06T02:40:07;7.00;;;6.55;;
37937;SDS011;23763;48.130;11.602;2023-08-06T02:42:33;7.32;;;6.82;;
37937;SDS011;23763;48.130;11.602;2023-08-06T02:44:59;7.35;;;6.70;;
37937;SDS011;23763;48.130;11.602;2023-08-06T02:47:24;7.15;;;6.55;;
37937;SDS011;23763;48.130;11.602;2023-08-06T02:49:50;6.20;;;5.88;;
37937;SDS011;23763;48.130;11.602;2023-08-06T02:52:15;6.50;;;6.15;;
37937;SDS011;23763;48.130;11.602;2023-08-06T02:54:42;6.55;;;6.15;;
37937;SDS011;23763;48.130;11.602;2023-08-06T02:57:08;6.80;;;6.30;;
37937;SDS011;23763;48.130;11.602;2023-08-06T02:59:33;6.80;;;6.35;;
37937;SDS011;23763;48.130;11.602;2023-08-06T03:01:59;6.65;;;6.32;;
37937;SDS011;23763;48.130;11.602;2023-08-06T03:04:24;6.47;;;6.18;;
37937;SDS011;23763;48.130;11.602;2023-08-06T03:06:50;6.70;;;6.32;;
37937;SDS011;23763;48.130;11.602;2023-08-06T03:09:16;6.32;;;5.93;;
37937;SDS011;23763;48.130;11.602;2023-08-06T03:11:42;6.43;;;6.13;;
37937;SDS011;23763;48.130;11.602;2023-08-06T03:14:07;6.50;;;6.20;;
37937;SDS011;23763;48.130;11.602;2023-08-06T03:16:33;6.75;;;6.32;;
37937;SDS011;23763;48.130;11.602;2023-08-06T03:18:59;8.20;;;6.65;;
37937;SDS011;23763;48.130;11.602;2023-08-06T03:21:25;6.60;;;6.22;;
37937;SDS011;23763;48.130;11.602;2023-08-06T03:23:50;6.60;;;6.20;;
37937;SDS011;23763;48.130;11.602;2023-08-06T03:26:16;6.85;;;6.50;;
37937;SDS011;23763;48.130;11.602;2023-08-06T03:28:42;6.28;;;5.97;;
37937;SDS011;23763;48.130;11.602;2023-08-06T03:31:07;6.13;;;5.82;;
37937;SDS011;23763;48.130;11.602;2023-08-06T03:33:33;6.05;;;5.75;;
37937;SDS011;23763;48.130;11.602;2023-08-06T03:35:58;6.40;;;6.00;;
37937;SDS011;23763;48.130;11.602;2023-08-06T03:38:24;5.60;;;5.32;;
37937;SDS011;23763;48.130;11.602;2023-08-06T03:40:50;6.47;;;6.07;;
37937;SDS011;23763;48.130;11.602;2023-08-06T03:43:15;6.00;;;5.70;;
37937;SDS011;23763;48.130;11.602;2023-08-06T03:45:41;6.13;;;5.55;;
37937;SDS011;23763;48.130;11.602;2023-08-06T03:48:07;6.15;;;5.75;;
37937;SDS011;23763;48.130;11.602;2023-08-06T03:50:33;6.30;;;5.90;;
37937;SDS011;23763;48.130;11.602;2023-08-06T03:52:59;5.90;;;5.60;;
37937;SDS011;23763;48.130;11.602;2023-08-06T03:55:25;5.53;;;5.28;;
37937;SDS011;23763;48.130;11.602;2023-08-06T03:57:50;6.50;;;6.00;;
37937;SDS011;23763;48.130;11.602;2023-08-06T04:00:16;6.25;;;5.75;;
37937;SDS011;23763;48.130;11.602;2023-08-06T04:02:42;6.28;;;5.90;;
37937;SDS011;23763;48.130;11.602;2023-08-06T04:05:07;5.75;;;5.45;;
37937;SDS011;23763;48.130;11.602;2023-08-06T04:07:33;5.82;;;5.50;;
37937;SDS011;23763;48.130;11.602;2023-08-06T04:10:00;6.38;;;5.88;;
37937;SDS011;23763;48.130;11.602;2023-08-06T04:12:27;5.97;;;5.68;;
37937;SDS011;23763;48.130;11.602;2023-08-06T04:14:53;6.60;;;5.93;;
37937;SDS011;23763;48.130;11.602;2023-08-06T04:17:19;5.88;;;5.57;;
37937;SDS011;23763;48.130;11.602;2023-08-06T04:19:46;6.03;;;5.70;;
37937;SDS011;23763;48.130;11.602;2023-08-06T04:22:18;6.25;;;5.95;;
37937;SDS011;23763;48.130;11.602;2023-08-06T04:24:44;6.43;;;5.93;;
37937;SDS011;23763;48.130;11.602;2023-08-06T04:27:10;6.13;;;5.78;;
37937;SDS011;23763;48.130;11.602;2023-08-06T04:29:36;6.03;;;5.63;;
37937;SDS011;23763;48.130;11.602;2023-08-06T04:32:03;5.85;;;5.55;;
37937;SDS011;23763;48.130;11.602;2023-08-06T04:34:31;6.05;;;5.75;;
37937;SDS011;23763;48.130;11.602;2023-08-06T04:36:56;5.95;;;5.65;;
37937;SDS011;23763;48.130;11.602;2023-08-06T04:39:22;6.45;;;6.15;;
37937;SDS011;23763;48.130;11.602;2023-08-06T04:41:47;5.70;;;5.30;;
37937;SDS011;23763;48.130;11.602;2023-08-06T04:44:13;5.57;;;5.13;;
37937;SDS011;23763;48.130;11.602;2023-08-06T04:46:38;5.85;;;5.55;;
37937;SDS011;23763;48.130;11.602;2023-08-06T04:49:04;5.95;;;5.60;;
37937;SDS011;23763;48.130;11.602;2023-08-06T04:51:30;5.63;;;5.35;;
37937;SDS011;23763;48.130;11.602;2023-08-06T04:53:56;6.05;;;5.65;;
37937;SDS011;23763;48.130;11.602;2023-08-06T04:56:22;5.95;;;5.65;;
37937;SDS011;23763;48.130;11.602;2023-08-06T04:58:48;5.25;;;4.97;;
37937;SDS011;23763;48.130;11.602;2023-08-06T05:01:13;6.20;;;5.75;;
37937;SDS011;23763;48.130;11.602;2023-08-06T05:03:39;5.95;;;5.57;;
37937;SDS011;23763;48.130;11.602;2023-08-06T05:06:05;5.70;;;5.40;;
37937;SDS011;23763;48.130;11.602;2023-08-06T05:08:30;6.30;;;5.90;;
37937;SDS011;23763;48.130;11.602;2023-08-06T05:10:56;6.00;;;5.70;;
37937;SDS011;23763;48.130;11.602;2023-08-06T05:13:21;6.00;;;5.70;;
37937;SDS011;23763;48.130;11.602;2023-08-06T05:15:47;6.22;;;5.82;;
37937;SDS011;23763;48.130;11.602;2023-08-06T05:18:14;6.32;;;5.65;;
37937;SDS011;23763;48.130;11.602;2023-08-06T05:20:40;5.90;;;5.50;;
37937;SDS011;23763;48.130;11.602;2023-08-06T05:23:06;5.85;;;5.55;;
37937;SDS011;23763;48.130;11.602;2023-08-06T05:25:34;5.72;;;5.43;;
37937;SDS011;23763;48.130;11.602;2023-08-06T05:28:00;5.75;;;5.45;;
37937;SDS011;23763;48.130;11.602;2023-08-06T05:30:26;5.90;;;5.50;;
37937;SDS011;23763;48.130;11.602;2023-08-06T05:32:52;6.10;;;5.60;;
37937;SDS011;23763;48.130;11.602;2023-08-06T05:35:17;5.85;;;5.50;;
37937;SDS011;23763;48.130;11.602;2023-08-06T05:37:43;6.10;;;5.80;;
37937;SDS011;23763;48.130;11.602;2023-08-06T05:40:09;5.80;;;5.40;;
37937;SDS011;23763;48.130;11.602;2023-08-06T05:42:34;6.32;;;5.82;;
37937;SDS011;23763;48.130;11.602;2023-08-06T05:45:00;5.68;;;5.38;;
37937;SDS011;23763;48.130;11.602;2023-08-06T05:47:25;5.07;;;4.88;;
37937;SDS011;23763;48.130;11.602;2023-08-06T05:49:51;6.03;;;5.60;;
37937;SDS011;23763;48.130;11.602;2023-08-06T05:52:17;5.28;;;5.07;;
37937;SDS011;23763;48.130;11.602;2023-08-06T05:54:42;6.22;;;5.90;;
37937;SDS011;23763;48.130;11.602;2023-08-06T05:57:08;5.95;;;5.65;;
37937;SDS011;23763;48.130;11.602;2023-08-06T05:59:33;5.68;;;5.38;;
37937;SDS011;23763;48.130;11.602;2023-08-06T06:01:59;6.22;;;5.82;;
37937;SDS011;23763;48.130;11.602;2023-08-06T06:04:25;5.30;;;5.10;;
37937;SDS011;23763;48.130;11.602;2023-08-06T06:06:50;5.45;;;5.07;;
37937;SDS011;23763;48.130;11.602;2023-08-06T06:09:16;5.90;;;5.60;;
37937;SDS011;23763;48.130;11.602;2023-08-06T06:11:41;5.68;;;5.47;;
37937;SDS011;23763;48.130;11.602;2023-08-06T06:14:07;6.38;;;5.80;;
37937;SDS011;23763;48.130;11.602;2023-08-06T06:16:33;6.13;;;5.72;;
37937;SDS011;23763;48.130;11.602;2023-08-06T06:18:59;5.70;;;5.40;;
37937;SDS011;23763;48.130;11.602;2023-08-06T06:21:24;5.50;;;5.03;;
37937;SDS011;23763;48.130;11.602;2023-08-06T06:23:50;5.80;;;5.30;;
37937;SDS011;23763;48.130;11.602;2023-08-06T06:26:18;5.80;;;5.50;;
37937;SDS011;23763;48.130;11.602;2023-08-06T06:28:44;5.72;;;5.40;;
37937;SDS011;23763;48.130;11.602;2023-08-06T06:31:10;5.60;;;5.30;;
37937;SDS011;23763;48.130;11.602;2023-08-06T06:33:35;5.50;;;5.20;;
37937;SDS011;23763;48.130;11.602;2023-08-06T06:36:01;5.32;;;5.03;;
37937;SDS011;23763;48.130;11.602;2023-08-06T06:38:29;5.88;;;5.57;;
37937;SDS011;23763;48.130;11.602;2023-08-06T06:40:55;5.70;;;5.40;;
37937;SDS011;23763;48.130;11.602;2023-08-06T06:43:21;5.45;;;5.15;;
37937;SDS011;23763;48.130;11.602;2023-08-06T06:45:52;5.45;;;5.15;;
37937;SDS011;23763;48.130;11.602;2023-08-06T06:48:18;5.75;;;5.45;;
37937;SDS011;23763;48.130;11.602;2023-08-06T06:50:46;5.85;;;5.45;;
37937;SDS011;23763;48.130;11.602;2023-08-06T06:53:13;5.00;;;4.80;;
37937;SDS011;23763;48.130;11.602;2023-08-06T06:55:39;5.38;;;5.07;;
37937;SDS011;23763;48.130;11.602;2023-08-06T06:58:04;5.93;;;5.63;;
37937;SDS011;23763;48.130;11.602;2023-08-06T07:00:30;5.80;;;5.50;;
37937;SDS011;23763;48.130;11.602;2023-08-06T07:02:55;5.75;;;5.40;;
37937;SDS011;23763;48.130;11.602;2023-08-06T07:05:21;5.50;;;5.03;;
37937;SDS011;23763;48.130;11.602;2023-08-06T07:07:47;5.40;;;5.10;;
37937;SDS011;23763;48.130;11.602;2023-08-06T07:10:12;5.88;;;5.38;;
37937;SDS011;23763;48.130;11.602;2023-08-06T07:12:38;5.60;;;5.25;;
37937;SDS011;23763;48.130;11.602;2023-08-06T07:15:05;5.40;;;5.10;;
37937;SDS011;23763;48.130;11.602;2023-08-06T07:17:32;5.28;;;5.07;;
37937;SDS011;23763;48.130;11.602;2023-08-06T07:19:57;5.60;;;5.40;;
37937;SDS011;23763;48.130;11.602;2023-08-06T07:22:23;5.00;;;4.80;;
37937;SDS011;23763;48.130;11.602;2023-08-06T07:24:48;5.00;;;4.80;;
37937;SDS011;23763;48.130;11.602;2023-08-06T07:27:14;5.03;;;4.82;;
37937;SDS011;23763;48.130;11.602;2023-08-06T07:29:39;4.82;;;4.60;;
37937;SDS011;23763;48.130;11.602;2023-08-06T07:32:06;4.75;;;4.55;;
37937;SDS011;23763;48.130;11.602;2023-08-06T07:34:32;5.00;;;4.70;;
37937;SDS011;23763;48.130;11.602;2023-08-06T07:36:58;5.00;;;4.80;;
37937;SDS011;23763;48.130;11.602;2023-08-06T07:39:24;5.40;;;5.10;;
37937;SDS011;23763;48.130;11.602;2023-08-06T07:41:49;5.32;;;5.00;;
37937;SDS011;23763;48.130;11.602;2023-08-06T07:44:15;5.80;;;5.50;;
37937;SDS011;23763;48.130;11.602;2023-08-06T07:46:41;5.90;;;5.60;;
37937;SDS011;23763;48.130;11.602;2023-08-06T07:49:07;5.93;;;5.53;;
37937;SDS011;23763;48.130;11.602;2023-08-06T07:51:33;5.00;;;4.70;;
37937;SDS011;23763;48.130;11.602;2023-08-06T07:53:59;4.97;;;4.78;;
37937;SDS011;23763;48.130;11.602;2023-08-06T07:56:24;5.15;;;4.90;;
37937;SDS011;23763;48.130;11.602;2023-08-06T07:58:50;4.80;;;4.60;;
37937;SDS011;23763;48.130;11.602;2023-08-06T08:01:15;5.28;;;4.97;;
37937;SDS011;23763;48.130;11.602;2023-08-06T08:03:41;5.22;;;4.93;;
37937;SDS011;23763;48.130;11.602;2023-08-06T08:06:06;5.60;;;5.20;;
37937;SDS011;23763;48.130;11.602;2023-08-06T08:08:32;5.03;;;4.82;;
37937;SDS011;23763;48.130;11.602;2023-08-06T08:10:58;5.13;;;4.82;;
37937;SDS011;23763;48.130;11.602;2023-08-06T08:13:25;4.97;;;4.70;;
37937;SDS011;23763;48.130;11.602;2023-08-06T08:15:55;5.35;;;5.00;;
37937;SDS011;23763;48.130;11.602;2023-08-06T08:18:22;5.00;;;4.60;;
37937;SDS011;23763;48.130;11.602;2023-08-06T08:20:48;5.45;;;5.00;;
37937;SDS011;23763;48.130;11.602;2023-08-06T08:23:14;5.45;;;4.78;;
37937;SDS011;23763;48.130;11.602;2023-08-06T08:25:39;4.75;;;4.55;;
37937;SDS011;23763;48.130;11.602;2023-08-06T08:28:05;5.03;;;4.60;;
37937;SDS011;23763;48.130;11.602;2023-08-06T08:30:30;5.18;;;4.90;;
37937;SDS011;23763;48.130;11.602;2023-08-06T08:32:56;5.18;;;4.72;;
37937;SDS011;23763;48.130;11.602;2023-08-06T08:35:21;4.85;;;4.65;;
37937;SDS011;23763;48.130;11.602;2023-08-06T08:37:47;4.78;;;4.57;;
37937;SDS011;23763;48.130;11.602;2023-08-06T08:40:13;4.80;;;4.60;;
37937;SDS011;23763;48.130;11.602;2023-08-06T08:42:40;4.82;;;4.60;;
37937;SDS011;23763;48.130;11.602;2023-08-06T08:45:11;4.68;;;4.47;;
37937;SDS011;23763;48.130;11.602;2023-08-06T08:47:44;4.85;;;4.65;;
37937;SDS011;23763;48.130;11.602;2023-08-06T08:50:11;4.55;;;4.28;;
37937;SDS011;23763;48.130;11.602;2023-08-06T08:52:38;4.97;;;4.68;;
37937;SDS011;23763;48.130;11.602;2023-08-06T08:55:05;4.85;;;4.65;;
37937;SDS011;23763;48.130;11.602;2023-08-06T08:57:32;5.03;;;4.65;;
37937;SDS011;23763;48.130;11.602;2023-08-06T08:59:58;4.60;;;4.40;;
37937;SDS011;23763;48.130;11.602;2023-08-06T09:02:23;4.50;;;4.30;;
37937;SDS011;23763;48.130;11.602;2023-08-06T09:04:51;4.50;;;4.30;;
37937;SDS011;23763;48.130;11.602;2023-08-06T09:07:18;4.45;;;4.25;;
37937;SDS011;23763;48.130;11.602;2023-08-06T09:09:46;4.13;;;3.92;;
37937;SDS011;23763;48.130;11.602;2023-08-06T09:12:15;4.15;;;3.95;;
37937;SDS011;23763;48.130;11.602;2023-08-06T09:14:41;4.05;;;3.85;;
37937;SDS011;23763;48.130;11.602;2023-08-06T09:17:08;4.20;;;4.00;;
37937;SDS011;23763;48.130;11.602;2023-08-06T09:19:35;4.13;;;3.97;;
37937;SDS011;23763;48.130;11.602;2023-08-06T09:22:01;4.28;;;4.13;;
37937;SDS011;23763;48.130;11.602;2023-08-06T09:24:27;5.10;;;4.70;;
37937;SDS011;23763;48.130;11.602;2023-08-06T09:26:52;4.68;;;4.35;;
37937;SDS011;23763;48.130;11.602;2023-08-06T09:29:19;4.68;;;4.47;;
37937;SDS011;23763;48.130;11.602;2023-08-06T09:31:46;4.32;;;4.13;;
37937;SDS011;23763;48.130;11.602;2023-08-06T09:34:16;4.07;;;3.88;;
37937;SDS011;23763;48.130;11.602;2023-08-06T09:36:43;4.55;;;4.20;;
37937;SDS011;23763;48.130;11.602;2023-08-06T09:39:15;4.70;;;4.38;;
37937;SDS011;23763;48.130;11.602;2023-08-06T09:41:42;4.05;;;3.95;;
37937;SDS011;23763;48.130;11.602;2023-08-06T09:44:14;4.00;;;3.90;;
37937;SDS011;23763;48.130;11.602;2023-08-06T09:46:48;4.57;;;4.30;;
37937;SDS011;23763;48.130;11.602;2023-08-06T09:49:15;4.45;;;4.25;;
37937;SDS011;23763;48.130;11.602;2023-08-06T09:51:41;4.15;;;4.03;;
37937;SDS011;23763;48.130;11.602;2023-08-06T09:54:07;4.57;;;4.47;;
37937;SDS011;23763;48.130;11.602;2023-08-06T09:56:37;4.65;;;4.40;;
37937;SDS011;23763;48.130;11.602;2023-08-06T09:59:05;4.40;;;4.20;;
37937;SDS011;23763;48.130;11.602;2023-08-06T10:01:35;4.20;;;4.10;;
37937;SDS011;23763;48.130;11.602;2023-08-06T10:04:05;4.40;;;4.20;;
37937;SDS011;23763;48.130;11.602;2023-08-06T10:06:35;4.25;;;3.97;;
37937;SDS011;23763;48.130;11.602;2023-08-06T10:09:01;4.30;;;4.20;;
37937;SDS011;23763;48.130;11.602;2023-08-06T10:11:28;5.38;;;4.95;;
37937;SDS011;23763;48.130;11.602;2023-08-06T10:14:02;3.85;;;3.75;;
37937;SDS011;23763;48.130;11.602;2023-08-06T10:16:35;4.20;;;4.00;;
37937;SDS011;23763;48.130;11.602;2023-08-06T10:19:03;3.80;;;3.70;;
37937;SDS011;23763;48.130;11.602;2023-08-06T10:21:30;4.25;;;3.90;;
37937;SDS011;23763;48.130;11.602;2023-08-06T10:23:57;3.95;;;3.85;;
37937;SDS011;23763;48.130;11.602;2023-08-06T10:26:29;4.47;;;4.30;;
37937;SDS011;23763;48.130;11.602;2023-08-06T10:28:55;4.13;;;4.03;;
37937;SDS011;23763;48.130;11.602;2023-08-06T10:37:21;4.20;;;4.10;;
37937;SDS011;23763;48.130;11.602;2023-08-06T10:39:51;4.22;;;4.05;;
37937;SDS011;23763;48.130;11.602;2023-08-06T10:42:27;4.15;;;3.85;;
37937;SDS011;23763;48.130;11.602;2023-08-06T10:47:45;4.07;;;3.92;;
37937;SDS011;23763;48.130;11.602;2023-08-06T10:50:17;3.90;;;3.80;;
37937;SDS011;23763;48.130;11.602;2023-08-06T10:52:43;4.78;;;4.50;;
37937;SDS011;23763;48.130;11.602;2023-08-06T10:55:10;4.97;;;4.68;;
37937;SDS011;23763;48.130;11.602;2023-08-06T10:57:35;4.07;;;3.78;;
37937;SDS011;23763;48.130;11.602;2023-08-06T11:00:03;4.68;;;4.47;;
37937;SDS011;23763;48.130;11.602;2023-08-06T11:02:32;4.40;;;4.20;;
37937;SDS011;23763;48.130;11.602;2023-08-06T11:05:04;4.25;;;4.05;;
37937;SDS011;23763;48.130;11.602;2023-08-06T11:07:30;5.20;;;4.90;;
37937;SDS011;23763;48.130;11.602;2023-08-06T11:10:05;4.07;;;3.90;;
37937;SDS011;23763;48.130;11.602;2023-08-06T11:12:33;4.75;;;4.40;;
37937;SDS011;23763;48.130;11.602;2023-08-06T11:14:59;4.15;;;3.95;;
37937;SDS011;23763;48.130;11.602;2023-08-06T11:17:27;3.90;;;3.70;;
37937;SDS011;23763;48.130;11.602;2023-08-06T11:19:54;3.72;;;3.63;;
37937;SDS011;23763;48.130;11.602;2023-08-06T11:22:20;3.97;;;3.88;;
37937;SDS011;23763;48.130;11.602;2023-08-06T11:24:47;3.80;;;3.70;;
37937;SDS011;23763;48.130;11.602;2023-08-06T11:27:16;4.00;;;3.90;;
37937;SDS011;23763;48.130;11.602;2023-08-06T11:29:42;4.38;;;4.18;;
37937;SDS011;23763;48.130;11.602;2023-08-06T11:32:08;4.03;;;3.83;;
37937;SDS011;23763;48.130;11.602;2023-08-06T11:34:35;4.25;;;4.05;;
37937;SDS011;23763;48.130;11.602;2023-08-06T11:37:04;4.00;;;3.83;;
37937;SDS011;23763;48.130;11.602;2023-08-06T11:39:34;3.78;;;3.67;;
37937;SDS011;23763;48.130;11.602;2023-08-06T11:42:02;3.80;;;3.70;;
37937;SDS011;23763;48.130;11.602;2023-08-06T11:44:29;3.60;;;3.50;;
37937;SDS011;23763;48.130;11.602;2023-08-06T11:47:00;4.28;;;4.18;;
37937;SDS011;23763;48.130;11.602;2023-08-06T11:52:19;4.10;;;4.00;;
37937;SDS011;23763;48.130;11.602;2023-08-06T11:54:47;4.15;;;3.78;;
37937;SDS011;23763;48.130;11.602;2023-08-06T11:57:24;4.20;;;4.10;;
37937;SDS011;23763;48.130;11.602;2023-08-06T11:59:49;4.05;;;3.95;;
37937;SDS011;23763;48.130;11.602;2023-08-06T12:02:15;4.00;;;3.90;;
37937;SDS011;23763;48.130;11.602;2023-08-06T12:05:00;3.97;;;3.78;;
37937;SDS011;23763;48.130;11.602;2023-08-06T12:07:37;3.88;;;3.78;;
37937;SDS011;23763;48.130;11.602;2023-08-06T12:10:03;3.60;;;3.50;;
37937;SDS011;23763;48.130;11.602;2023-08-06T12:12:30;3.65;;;3.55;;
37937;SDS011;23763;48.130;11.602;2023-08-06T12:14:56;4.13;;;3.92;;
37937;SDS011;23763;48.130;11.602;2023-08-06T12:17:22;4.00;;;3.90;;
37937;SDS011;23763;48.130;11.602;2023-08-06T12:19:48;3.88;;;3.75;;
37937;SDS011;23763;48.130;11.602;2023-08-06T12:22:14;3.80;;;3.70;;
37937;SDS011;23763;48.130;11.602;2023-08-06T12:24:40;4.20;;;4.10;;
37937;SDS011;23763;48.130;11.602;2023-08-06T12:27:07;4.28;;;4.18;;
37937;SDS011;23763;48.130;11.602;2023-08-06T12:29:33;3.92;;;3.83;;
37937;SDS011;23763;48.130;11.602;2023-08-06T12:31:58;3.95;;;3.85;;
37937;SDS011;23763;48.130;11.602;2023-08-06T12:34:24;4.00;;;3.90;;
37937;SDS011;23763;48.130;11.602;2023-08-06T12:36:50;4.30;;;4.00;;
37937;SDS011;23763;48.130;11.602;2023-08-06T12:39:15;4.20;;;4.10;;
37937;SDS011;23763;48.130;11.602;2023-08-06T12:41:41;4.10;;;4.00;;
37937;SDS011;23763;48.130;11.602;2023-08-06T12:44:08;4.38;;;4.25;;
37937;SDS011;23763;48.130;11.602;2023-08-06T12:46:34;4.45;;;4.25;;
37937;SDS011;23763;48.130;11.602;2023-08-06T12:48:59;4.18;;;3.97;;
37937;SDS011;23763;48.130;11.602;2023-08-06T12:51:25;4.05;;;3.95;;
37937;SDS011;23763;48.130;11.602;2023-08-06T12:53:51;4.57;;;4.38;;
37937;SDS011;23763;48.130;11.602;2023-08-06T12:56:16;4.28;;;4.07;;
37937;SDS011;23763;48.130;11.602;2023-08-06T12:58:42;4.28;;;4.18;;
37937;SDS011;23763;48.130;11.602;2023-08-06T13:01:07;3.97;;;3.88;;
37937;SDS011;23763;48.130;11.602;2023-08-06T13:03:33;8.50;;;4.38;;
37937;SDS011;23763;48.130;11.602;2023-08-06T13:05:59;3.80;;;3.70;;
37937;SDS011;23763;48.130;11.602;2023-08-06T13:08:24;4.40;;;3.97;;
37937;SDS011;23763;48.130;11.602;2023-08-06T13:10:50;4.15;;;4.05;;
37937;SDS011;23763;48.130;11.602;2023-08-06T13:13:15;4.50;;;4.30;;
37937;SDS011;23763;48.130;11.602;2023-08-06T13:15:41;4.63;;;4.43;;
37937;SDS011;23763;48.130;11.602;2023-08-06T13:18:06;4.07;;;3.97;;
37937;SDS011;23763;48.130;11.602;2023-08-06T13:20:32;3.83;;;3.72;;
37937;SDS011;23763;48.130;11.602;2023-08-06T13:22:58;4.13;;;3.92;;
37937;SDS011;23763;48.130;11.602;2023-08-06T13:25:26;4.20;;;4.00;;
37937;SDS011;23763;48.130;11.602;2023-08-06T13:27:53;4.80;;;4.60;;
37937;SDS011;23763;48.130;11.602;2023-08-06T13:30:19;4.22;;;4.13;;
37937;SDS011;23763;48.130;11.602;2023-08-06T13:32:45;4.80;;;4.57;;
37937;SDS011;23763;48.130;11.602;2023-08-06T13:35:11;4.50;;;4.30;;
37937;SDS011;23763;48.130;11.602;2023-08-06T13:37:37;4.72;;;4.22;;
37937;SDS011;23763;48.130;11.602;2023-08-06T13:40:03;4.97;;;4.70;;
37937;SDS011;23763;48.130;11.602;2023-08-06T13:42:29;4.32;;;4.18;;
37937;SDS011;23763;48.130;11.602;2023-08-06T13:44:54;4.03;;;3.92;;
37937;SDS011;23763;48.130;11.602;2023-08-06T13:47:27;4.05;;;3.95;;
37937;SDS011;23763;48.130;11.602;2023-08-06T13:49:53;4.15;;;4.05;;
37937;SDS011;23763;48.130;11.602;2023-08-06T13:52:20;4.20;;;4.00;;
37937;SDS011;23763;48.130;11.602;2023-08-06T13:54:46;4.40;;;4.30;;
37937;SDS011;23763;48.130;11.602;2023-08-06T13:57:11;4.20;;;4.00;;
37937;SDS011;23763;48.130;11.602;2023-08-06T13:59:37;4.43;;;4.22;;
37937;SDS011;23763;48.130;11.602;2023-08-06T14:02:03;4.43;;;4.28;;
37937;SDS011;23763;48.130;11.602;2023-08-06T14:04:29;4.80;;;4.60;;
37937;SDS011;23763;48.130;11.602;2023-08-06T14:06:54;4.20;;;4.10;;
37937;SDS011;23763;48.130;11.602;2023-08-06T14:09:20;4.70;;;4.55;;
37937;SDS011;23763;48.130;11.602;2023-08-06T14:11:46;4.32;;;4.22;;
37937;SDS011;23763;48.130;11.602;2023-08-06T14:14:11;4.30;;;4.10;;
37937;SDS011;23763;48.130;11.602;2023-08-06T14:16:37;4.75;;;4.45;;
37937;SDS011;23763;48.130;11.602;2023-08-06T14:19:03;4.30;;;4.10;;
37937;SDS011;23763;48.130;11.602;2023-08-06T14:21:29;4.57;;;4.38;;
37937;SDS011;23763;48.130;11.602;2023-08-06T14:23:54;4.30;;;4.10;;
37937;SDS011;23763;48.130;11.602;2023-08-06T14:26:20;4.53;;;4.40;;
37937;SDS011;23763;48.130;11.602;2023-08-06T14:28:45;4.13;;;4.03;;
37937;SDS011;23763;48.130;11.602;2023-08-06T14:31:11;4.00;;;3.90;;
37937;SDS011;23763;48.130;11.602;2023-08-06T14:33:37;4.30;;;4.20;;
37937;SDS011;23763;48.130;11.602;2023-08-06T14:36:02;4.38;;;4.18;;
37937;SDS011;23763;48.130;11.602;2023-08-06T14:38:28;5.32;;;4.97;;
37937;SDS011;23763;48.130;11.602;2023-08-06T14:40:54;4.30;;;4.20;;
37937;SDS011;23763;48.130;11.602;2023-08-06T14:43:19;4.30;;;4.13;;
37937;SDS011;23763;48.130;11.602;2023-08-06T14:45:45;4.68;;;4.40;;